UAL1328 ENBR-BIKF
Flight info
| Callsign | UAL1328 |
|---|---|
| Flight time | N/A |
| Altitude | 38000 |
| Route | REKLI1D REKLI DCT VALDI/M084F380 DCT ING DCT NASBU NASBU2H |
| Aircraft | B77L/H-SDE1E2E3FGHIJ2J3J4J5M1RWXY/LB1D1 |
Departure
| Time | N/A |
|---|---|
| Airport | Bergen Airport, Flesland (ENBR) |
Arrival
| Time | 2026-05-03 21:47 |
|---|---|
| Airport | Keflavik International Airport (BIKF) |
| Time | Latitude | Longitude | Altitude | Speed | Heading |
|---|---|---|---|---|---|
| 2026-05-03 20:15 | 61.52677 | -1.38796 | 37861 ft | 450 kts | 291° |
| 2026-05-03 20:15 | 61.55185 | -1.50789 | 37862 ft | 450 kts | 291° |
| 2026-05-03 20:16 | 61.57702 | -1.62848 | 37863 ft | 450 kts | 291° |
| 2026-05-03 20:16 | 61.60198 | -1.74855 | 37868 ft | 450 kts | 291° |
| 2026-05-03 20:17 | 61.62699 | -1.86943 | 37872 ft | 450 kts | 291° |
| 2026-05-03 20:17 | 61.65177 | -1.98998 | 37873 ft | 450 kts | 291° |
| 2026-05-03 20:18 | 61.67646 | -2.11072 | 37869 ft | 450 kts | 291° |
| 2026-05-03 20:18 | 61.70103 | -2.23166 | 37871 ft | 450 kts | 291° |
| 2026-05-03 20:19 | 61.72567 | -2.35366 | 37878 ft | 450 kts | 291° |
| 2026-05-03 20:19 | 61.75004 | -2.47505 | 37877 ft | 450 kts | 291° |
| 2026-05-03 20:20 | 61.77431 | -2.59666 | 37887 ft | 450 kts | 291° |
| 2026-05-03 20:20 | 61.79853 | -2.71876 | 37884 ft | 450 kts | 291° |
| 2026-05-03 20:21 | 61.82259 | -2.84078 | 37883 ft | 450 kts | 290° |
| 2026-05-03 20:21 | 61.84667 | -2.96366 | 37889 ft | 450 kts | 291° |
| 2026-05-03 20:22 | 61.87052 | -3.08608 | 37888 ft | 450 kts | 291° |
| 2026-05-03 20:22 | 61.89422 | -3.20854 | 37907 ft | 451 kts | 290° |
| 2026-05-03 20:23 | 61.91403 | -3.31142 | 37905 ft | 451 kts | 290° |
| 2026-05-03 20:23 | 61.93760 | -3.43459 | 37896 ft | 451 kts | 290° |
| 2026-05-03 20:24 | 61.96117 | -3.55846 | 37898 ft | 451 kts | 290° |
| 2026-05-03 20:24 | 61.98450 | -3.68192 | 37894 ft | 451 kts | 290° |
| 2026-05-03 20:25 | 62.00780 | -3.80593 | 37902 ft | 451 kts | 290° |
| 2026-05-03 20:25 | 62.03101 | -3.93027 | 37901 ft | 451 kts | 290° |
| 2026-05-03 20:26 | 62.05402 | -4.05435 | 37904 ft | 451 kts | 290° |
| 2026-05-03 20:26 | 62.07688 | -4.17836 | 37904 ft | 451 kts | 290° |
| 2026-05-03 20:27 | 62.09965 | -4.30269 | 37909 ft | 451 kts | 290° |
| 2026-05-03 20:27 | 62.12249 | -4.42824 | 37900 ft | 450 kts | 290° |
| 2026-05-03 20:28 | 62.14493 | -4.55234 | 37914 ft | 450 kts | 290° |
| 2026-05-03 20:28 | 62.16747 | -4.67785 | 37918 ft | 452 kts | 290° |
| 2026-05-03 20:29 | 62.18988 | -4.80343 | 37921 ft | 451 kts | 290° |
| 2026-05-03 20:29 | 62.21224 | -4.92955 | 37914 ft | 451 kts | 290° |
| 2026-05-03 20:30 | 62.23439 | -5.05534 | 37918 ft | 451 kts | 290° |
| 2026-05-03 20:30 | 62.25642 | -5.18125 | 37910 ft | 451 kts | 290° |
| 2026-05-03 20:31 | 62.27828 | -5.30701 | 37924 ft | 450 kts | 290° |
| 2026-05-03 20:31 | 62.30003 | -5.43304 | 37921 ft | 450 kts | 290° |
| 2026-05-03 20:32 | 62.32170 | -5.55942 | 37925 ft | 450 kts | 289° |
| 2026-05-03 20:32 | 62.34328 | -5.68609 | 37926 ft | 450 kts | 289° |
| 2026-05-03 20:33 | 62.36469 | -5.81268 | 37923 ft | 450 kts | 289° |
| 2026-05-03 20:33 | 62.38595 | -5.93921 | 37920 ft | 450 kts | 289° |
| 2026-05-03 20:34 | 62.40715 | -6.06623 | 37955 ft | 450 kts | 289° |
| 2026-05-03 20:34 | 62.42816 | -6.19303 | 37931 ft | 449 kts | 289° |
| 2026-05-03 20:35 | 62.44909 | -6.32015 | 37931 ft | 448 kts | 289° |
| 2026-05-03 20:35 | 62.46972 | -6.44638 | 37926 ft | 447 kts | 289° |
| 2026-05-03 20:36 | 62.49027 | -6.57295 | 37930 ft | 446 kts | 289° |
| 2026-05-03 20:36 | 62.51077 | -6.70014 | 37930 ft | 446 kts | 289° |
| 2026-05-03 20:37 | 62.53104 | -6.82680 | 37931 ft | 446 kts | 289° |
| 2026-05-03 20:37 | 62.55122 | -6.95374 | 37935 ft | 446 kts | 289° |
| 2026-05-03 20:38 | 62.57136 | -7.08132 | 37932 ft | 447 kts | 289° |
| 2026-05-03 20:38 | 62.59135 | -7.20892 | 37936 ft | 448 kts | 289° |
| 2026-05-03 20:39 | 62.61129 | -7.33703 | 37936 ft | 448 kts | 289° |
| 2026-05-03 20:39 | 62.63109 | -7.46522 | 37970 ft | 448 kts | 289° |
| 2026-05-03 20:40 | 62.65077 | -7.59361 | 37945 ft | 449 kts | 288° |
| 2026-05-03 20:40 | 62.67051 | -7.72326 | 37946 ft | 450 kts | 288° |
| 2026-05-03 20:41 | 62.69002 | -7.85238 | 37932 ft | 450 kts | 288° |
| 2026-05-03 20:41 | 62.70940 | -7.98161 | 37932 ft | 450 kts | 288° |
| 2026-05-03 20:42 | 62.72878 | -8.11179 | 37939 ft | 450 kts | 288° |
| 2026-05-03 20:42 | 62.74792 | -8.24132 | 37940 ft | 450 kts | 288° |
| 2026-05-03 20:43 | 62.76704 | -8.37170 | 37959 ft | 450 kts | 288° |
| 2026-05-03 20:43 | 62.78596 | -8.50171 | 37956 ft | 450 kts | 288° |
| 2026-05-03 20:44 | 62.80472 | -8.63166 | 37957 ft | 449 kts | 288° |
| 2026-05-03 20:44 | 62.82347 | -8.76249 | 37960 ft | 449 kts | 288° |
| 2026-05-03 20:45 | 62.84199 | -8.89276 | 37946 ft | 449 kts | 287° |
| 2026-05-03 20:45 | 62.86040 | -9.02325 | 37955 ft | 450 kts | 288° |
| 2026-05-03 20:46 | 62.87871 | -9.15402 | 37959 ft | 449 kts | 288° |
| 2026-05-03 20:46 | 62.89696 | -9.28541 | 37959 ft | 449 kts | 287° |
| 2026-05-03 20:47 | 62.91495 | -9.41598 | 37953 ft | 449 kts | 287° |
| 2026-05-03 20:47 | 62.93288 | -9.54712 | 37959 ft | 449 kts | 287° |
| 2026-05-03 20:48 | 62.95076 | -9.67896 | 37962 ft | 449 kts | 287° |
| 2026-05-03 20:48 | 62.96838 | -9.80997 | 37935 ft | 448 kts | 287° |
| 2026-05-03 20:49 | 62.98588 | -9.94116 | 37962 ft | 448 kts | 287° |
| 2026-05-03 20:49 | 63.00327 | -10.07256 | 37960 ft | 448 kts | 287° |
| 2026-05-03 20:50 | 63.02059 | -10.20452 | 37969 ft | 448 kts | 287° |
| 2026-05-03 20:50 | 63.03769 | -10.33585 | 37971 ft | 448 kts | 287° |
| 2026-05-03 20:51 | 63.05478 | -10.46824 | 37992 ft | 448 kts | 287° |
| 2026-05-03 20:51 | 63.07173 | -10.60070 | 37945 ft | 448 kts | 287° |
| 2026-05-03 20:52 | 63.08847 | -10.73253 | 37960 ft | 446 kts | 287° |
| 2026-05-03 20:52 | 63.10503 | -10.86416 | 37965 ft | 445 kts | 287° |
| 2026-05-03 20:53 | 63.12148 | -10.99599 | 37970 ft | 445 kts | 287° |
| 2026-05-03 20:53 | 63.13774 | -11.12738 | 37966 ft | 444 kts | 287° |
| 2026-05-03 20:54 | 63.15394 | -11.25948 | 37963 ft | 444 kts | 287° |
| 2026-05-03 20:54 | 63.17792 | -11.45718 | 37968 ft | 444 kts | 287° |
| 2026-05-03 20:55 | 63.19373 | -11.58887 | 37972 ft | 444 kts | 287° |
| 2026-05-03 20:55 | 63.20950 | -11.72152 | 37972 ft | 444 kts | 286° |
| 2026-05-03 20:56 | 63.22510 | -11.85385 | 37968 ft | 444 kts | 286° |
| 2026-05-03 20:56 | 63.24054 | -11.98601 | 38013 ft | 444 kts | 286° |
| 2026-05-03 20:57 | 63.25595 | -12.11903 | 37978 ft | 445 kts | 286° |
| 2026-05-03 20:57 | 63.27117 | -12.25177 | 37954 ft | 445 kts | 286° |
| 2026-05-03 20:58 | 63.28634 | -12.38528 | 37967 ft | 443 kts | 286° |
| 2026-05-03 20:58 | 63.30129 | -12.51801 | 37964 ft | 441 kts | 286° |
| 2026-05-03 20:59 | 63.31605 | -12.65029 | 37964 ft | 440 kts | 286° |
| 2026-05-03 20:59 | 63.33062 | -12.78216 | 37978 ft | 440 kts | 285° |
| 2026-05-03 21:00 | 63.34027 | -12.87008 | 37980 ft | 439 kts | 285° |
| 2026-05-03 21:00 | 63.35943 | -13.04651 | 37973 ft | 439 kts | 285° |
| 2026-05-03 21:01 | 63.37357 | -13.17817 | 37961 ft | 437 kts | 285° |
| 2026-05-03 21:01 | 63.38753 | -13.30933 | 37974 ft | 435 kts | 285° |
| 2026-05-03 21:02 | 63.40141 | -13.44102 | 37975 ft | 434 kts | 285° |
| 2026-05-03 21:02 | 63.41508 | -13.57203 | 37999 ft | 435 kts | 285° |
| 2026-05-03 21:03 | 63.42865 | -13.70330 | 37981 ft | 435 kts | 285° |
| 2026-05-03 21:03 | 63.44220 | -13.83570 | 37974 ft | 436 kts | 285° |
| 2026-05-03 21:04 | 63.45555 | -13.96741 | 37967 ft | 435 kts | 285° |
| 2026-05-03 21:04 | 63.46872 | -14.09880 | 37973 ft | 434 kts | 285° |
| 2026-05-03 21:05 | 63.48183 | -14.23081 | 37972 ft | 433 kts | 285° |
| 2026-05-03 21:05 | 63.49472 | -14.36197 | 37969 ft | 432 kts | 284° |
| 2026-05-03 21:06 | 63.50745 | -14.49283 | 37975 ft | 432 kts | 284° |
| 2026-05-03 21:06 | 63.52018 | -14.62503 | 37970 ft | 432 kts | 284° |
| 2026-05-03 21:07 | 63.53265 | -14.75589 | 37946 ft | 431 kts | 284° |
| 2026-05-03 21:07 | 63.54504 | -14.88737 | 37965 ft | 429 kts | 284° |
| 2026-05-03 21:08 | 63.55718 | -15.01758 | 37963 ft | 426 kts | 284° |
| 2026-05-03 21:08 | 63.56918 | -15.14746 | 37983 ft | 426 kts | 284° |
| 2026-05-03 21:09 | 63.58114 | -15.27839 | 37977 ft | 427 kts | 284° |
| 2026-05-03 21:09 | 63.59296 | -15.40925 | 37973 ft | 429 kts | 283° |
| 2026-05-03 21:10 | 63.60467 | -15.54039 | 37974 ft | 430 kts | 283° |
| 2026-05-03 21:10 | 63.61632 | -15.67226 | 37954 ft | 429 kts | 283° |
| 2026-05-03 21:11 | 63.62592 | -15.78217 | 37962 ft | 429 kts | 283° |
| 2026-05-03 21:11 | 63.63735 | -15.91421 | 37969 ft | 429 kts | 283° |
| 2026-05-03 21:12 | 63.64858 | -16.04539 | 37969 ft | 428 kts | 283° |
| 2026-05-03 21:12 | 63.65967 | -16.17650 | 37969 ft | 427 kts | 282° |
| 2026-05-03 21:13 | 63.67069 | -16.30828 | 37969 ft | 427 kts | 282° |
| 2026-05-03 21:13 | 63.68153 | -16.43947 | 37972 ft | 427 kts | 282° |
| 2026-05-03 21:14 | 63.69229 | -16.57114 | 37973 ft | 426 kts | 282° |
| 2026-05-03 21:14 | 63.70287 | -16.70229 | 37967 ft | 426 kts | 282° |
| 2026-05-03 21:15 | 63.71341 | -16.83439 | 37967 ft | 426 kts | 282° |
| 2026-05-03 21:15 | 63.72373 | -16.96544 | 37961 ft | 426 kts | 282° |
| 2026-05-03 21:16 | 63.73403 | -17.09781 | 37962 ft | 427 kts | 282° |
| 2026-05-03 21:16 | 63.74412 | -17.22916 | 37961 ft | 427 kts | 282° |
| 2026-05-03 21:17 | 63.75418 | -17.36175 | 37954 ft | 426 kts | 281° |
| 2026-05-03 21:17 | 63.76402 | -17.49321 | 37957 ft | 426 kts | 281° |
| 2026-05-03 21:18 | 63.77380 | -17.62552 | 37963 ft | 426 kts | 281° |
| 2026-05-03 21:18 | 63.78341 | -17.75718 | 37956 ft | 426 kts | 281° |
| 2026-05-03 21:19 | 63.79291 | -17.88920 | 37952 ft | 426 kts | 281° |
| 2026-05-03 21:19 | 63.80230 | -18.02130 | 37958 ft | 426 kts | 281° |
| 2026-05-03 21:20 | 63.81160 | -18.15409 | 37953 ft | 426 kts | 281° |
| 2026-05-03 21:20 | 63.82071 | -18.28584 | 37979 ft | 425 kts | 281° |
| 2026-05-03 21:21 | 63.82974 | -18.41827 | 37964 ft | 426 kts | 281° |
| 2026-05-03 21:21 | 63.83865 | -18.55091 | 37956 ft | 426 kts | 281° |
| 2026-05-03 21:22 | 63.84745 | -18.68364 | 37955 ft | 426 kts | 280° |
| 2026-05-03 21:22 | 63.85612 | -18.81665 | 37860 ft | 420 kts | 280° |
| 2026-05-03 21:23 | 63.86025 | -18.88087 | 37545 ft | 410 kts | 281° |
| 2026-05-03 21:23 | 63.86434 | -18.94480 | 36865 ft | 408 kts | 281° |
| 2026-05-03 21:23 | 63.86840 | -19.00860 | 36163 ft | 405 kts | 281° |
| 2026-05-03 21:23 | 63.87233 | -19.07091 | 35530 ft | 400 kts | 282° |
| 2026-05-03 21:24 | 63.87620 | -19.13270 | 34890 ft | 395 kts | 282° |
| 2026-05-03 21:24 | 63.88002 | -19.19424 | 34288 ft | 389 kts | 282° |
| 2026-05-03 21:24 | 63.88375 | -19.25455 | 33661 ft | 382 kts | 282° |
| 2026-05-03 21:24 | 63.88738 | -19.31335 | 32700 ft | 381 kts | 282° |
| 2026-05-03 21:25 | 63.89106 | -19.37313 | 31581 ft | 382 kts | 282° |
| 2026-05-03 21:25 | 63.89471 | -19.43315 | 30669 ft | 380 kts | 282° |
| 2026-05-03 21:25 | 63.89823 | -19.49176 | 30023 ft | 372 kts | 282° |
| 2026-05-03 21:25 | 63.90163 | -19.54896 | 29312 ft | 365 kts | 282° |
| 2026-05-03 21:26 | 63.90501 | -19.60607 | 28511 ft | 361 kts | 282° |
| 2026-05-03 21:26 | 63.90834 | -19.66252 | 27672 ft | 358 kts | 282° |
| 2026-05-03 21:26 | 63.91162 | -19.71854 | 26917 ft | 356 kts | 282° |
| 2026-05-03 21:26 | 63.91483 | -19.77365 | 26181 ft | 353 kts | 282° |
| 2026-05-03 21:27 | 63.91805 | -19.82914 | 25458 ft | 350 kts | 282° |
| 2026-05-03 21:27 | 63.92116 | -19.88322 | 24775 ft | 347 kts | 281° |
| 2026-05-03 21:27 | 63.92427 | -19.93769 | 24010 ft | 346 kts | 281° |
| 2026-05-03 21:27 | 63.92736 | -19.99208 | 23355 ft | 345 kts | 281° |
| 2026-05-03 21:28 | 63.93036 | -20.04549 | 22646 ft | 341 kts | 281° |
| 2026-05-03 21:28 | 63.93334 | -20.09887 | 21964 ft | 337 kts | 281° |
| 2026-05-03 21:28 | 63.93627 | -20.15178 | 21277 ft | 335 kts | 281° |
| 2026-05-03 21:28 | 63.93917 | -20.20408 | 20586 ft | 333 kts | 281° |
| 2026-05-03 21:29 | 63.94199 | -20.25555 | 19938 ft | 331 kts | 280° |
| 2026-05-03 21:29 | 63.94481 | -20.30751 | 19327 ft | 328 kts | 280° |
| 2026-05-03 21:29 | 63.94642 | -20.35940 | 18694 ft | 330 kts | 272° |
| 2026-05-03 21:29 | 63.94311 | -20.41128 | 17998 ft | 333 kts | 265° |
| 2026-05-03 21:30 | 63.93903 | -20.46261 | 17296 ft | 332 kts | 266° |
| 2026-05-03 21:30 | 63.93505 | -20.51450 | 16650 ft | 330 kts | 266° |
| 2026-05-03 21:30 | 63.93118 | -20.56605 | 16065 ft | 328 kts | 266° |
| 2026-05-03 21:30 | 63.92742 | -20.61636 | 15475 ft | 326 kts | 265° |
| 2026-05-03 21:31 | 63.92363 | -20.66715 | 14882 ft | 325 kts | 265° |
| 2026-05-03 21:31 | 63.91986 | -20.71767 | 14302 ft | 325 kts | 265° |
| 2026-05-03 21:31 | 63.91611 | -20.76782 | 13658 ft | 325 kts | 265° |
| 2026-05-03 21:31 | 63.91229 | -20.81872 | 12991 ft | 326 kts | 265° |
| 2026-05-03 21:32 | 63.90844 | -20.86963 | 12390 ft | 325 kts | 264° |
| 2026-05-03 21:32 | 63.90464 | -20.91966 | 11818 ft | 324 kts | 264° |
| 2026-05-03 21:32 | 63.90078 | -20.97036 | 11243 ft | 324 kts | 264° |
| 2026-05-03 21:32 | 63.89696 | -21.02044 | 10674 ft | 324 kts | 264° |
| 2026-05-03 21:33 | 63.89306 | -21.07123 | 10225 ft | 323 kts | 264° |
| 2026-05-03 21:33 | 63.88911 | -21.12233 | 10054 ft | 332 kts | 264° |
| 2026-05-03 21:33 | 63.88515 | -21.17313 | 9935 ft | 326 kts | 264° |
| 2026-05-03 21:33 | 63.88121 | -21.22351 | 9520 ft | 322 kts | 263° |
| 2026-05-03 21:34 | 63.87731 | -21.27333 | 8879 ft | 320 kts | 263° |
| 2026-05-03 21:34 | 63.87339 | -21.32337 | 8099 ft | 322 kts | 263° |
| 2026-05-03 21:34 | 63.86948 | -21.37316 | 7428 ft | 322 kts | 262° |
| 2026-05-03 21:34 | 63.86556 | -21.42266 | 7159 ft | 308 kts | 262° |
| 2026-05-03 21:35 | 63.86190 | -21.46808 | 6983 ft | 277 kts | 262° |
| 2026-05-03 21:35 | 63.85858 | -21.50931 | 6967 ft | 259 kts | 262° |
| 2026-05-03 21:35 | 63.85542 | -21.54893 | 6975 ft | 256 kts | 263° |
| 2026-05-03 21:35 | 63.85224 | -21.58870 | 6977 ft | 255 kts | 263° |
| 2026-05-03 21:36 | 63.84905 | -21.62836 | 6989 ft | 255 kts | 263° |
| 2026-05-03 21:36 | 63.84582 | -21.66809 | 6988 ft | 255 kts | 263° |
| 2026-05-03 21:36 | 63.84263 | -21.70724 | 6990 ft | 254 kts | 263° |
| 2026-05-03 21:36 | 63.83941 | -21.74658 | 6978 ft | 257 kts | 263° |
| 2026-05-03 21:37 | 63.83598 | -21.78894 | 7036 ft | 295 kts | 262° |
| 2026-05-03 21:37 | 63.83206 | -21.83693 | 6997 ft | 307 kts | 262° |
| 2026-05-03 21:37 | 63.82829 | -21.88176 | 6772 ft | 280 kts | 262° |
| 2026-05-03 21:37 | 63.82473 | -21.92424 | 6571 ft | 269 kts | 262° |
| 2026-05-03 21:38 | 63.82131 | -21.96531 | 6330 ft | 260 kts | 262° |
| 2026-05-03 21:38 | 63.81798 | -22.00507 | 6010 ft | 253 kts | 262° |
| 2026-05-03 21:38 | 63.81474 | -22.04366 | 5569 ft | 253 kts | 262° |
| 2026-05-03 21:38 | 63.81145 | -22.08279 | 5102 ft | 253 kts | 263° |
| 2026-05-03 21:39 | 63.80747 | -22.12178 | 4541 ft | 257 kts | 255° |
| 2026-05-03 21:39 | 63.80158 | -22.16019 | 4118 ft | 256 kts | 254° |
| 2026-05-03 21:39 | 63.79561 | -22.19751 | 3718 ft | 254 kts | 253° |
| 2026-05-03 21:39 | 63.78978 | -22.23477 | 3506 ft | 245 kts | 255° |
| 2026-05-03 21:40 | 63.78414 | -22.27150 | 3509 ft | 249 kts | 253° |
| 2026-05-03 21:40 | 63.77854 | -22.30812 | 3504 ft | 246 kts | 256° |
| 2026-05-03 21:40 | 63.77301 | -22.34434 | 3494 ft | 238 kts | 255° |
| 2026-05-03 21:40 | 63.76926 | -22.37955 | 3498 ft | 230 kts | 275° |
| 2026-05-03 21:41 | 63.77300 | -22.41427 | 3452 ft | 223 kts | 294° |
| 2026-05-03 21:41 | 63.77861 | -22.44746 | 3284 ft | 227 kts | 292° |
| 2026-05-03 21:41 | 63.78393 | -22.48076 | 3090 ft | 225 kts | 292° |
| 2026-05-03 21:41 | 63.78917 | -22.51345 | 2894 ft | 217 kts | 292° |
| 2026-05-03 21:42 | 63.79423 | -22.54494 | 2669 ft | 209 kts | 292° |
| 2026-05-03 21:42 | 63.79935 | -22.57435 | 2557 ft | 192 kts | 302° |
| 2026-05-03 21:42 | 63.80890 | -22.59354 | 2520 ft | 182 kts | 340° |
| 2026-05-03 21:42 | 63.82064 | -22.59842 | 2510 ft | 168 kts | 351° |
| 2026-05-03 21:43 | 63.83243 | -22.60161 | 2503 ft | 168 kts | 350° |
| 2026-05-03 21:43 | 63.84384 | -22.60434 | 2492 ft | 164 kts | 354° |
| 2026-05-03 21:43 | 63.85478 | -22.60529 | 2430 ft | 154 kts | 356° |
| 2026-05-03 21:43 | 63.86500 | -22.60546 | 2210 ft | 139 kts | 357° |
| 2026-05-03 21:44 | 63.87408 | -22.60549 | 2042 ft | 125 kts | 356° |
| 2026-05-03 21:44 | 63.88287 | -22.60552 | 1855 ft | 127 kts | 357° |
| 2026-05-03 21:44 | 63.89163 | -22.60550 | 1679 ft | 126 kts | 357° |
| 2026-05-03 21:44 | 63.90041 | -22.60550 | 1496 ft | 126 kts | 357° |
| 2026-05-03 21:45 | 63.90922 | -22.60549 | 1326 ft | 126 kts | 356° |
| 2026-05-03 21:45 | 63.91798 | -22.60550 | 1138 ft | 126 kts | 356° |
| 2026-05-03 21:45 | 63.92671 | -22.60548 | 954 ft | 124 kts | 357° |
| 2026-05-03 21:45 | 63.93542 | -22.60547 | 781 ft | 127 kts | 358° |
| 2026-05-03 21:46 | 63.94444 | -22.60545 | 604 ft | 129 kts | 356° |
| 2026-05-03 21:46 | 63.95338 | -22.60541 | 415 ft | 126 kts | 358° |
| 2026-05-03 21:46 | 63.96212 | -22.60542 | 260 ft | 128 kts | 359° |
| 2026-05-03 21:46 | 63.97052 | -22.60541 | 154 ft | 120 kts | 359° |
| 2026-05-03 21:47 | 63.97584 | -22.60554 | 153 ft | 106 kts | 359° |
| 2026-05-03 21:47 | 63.98039 | -22.60562 | 153 ft | 84 kts | 359° |
| 2026-05-03 21:47 | 63.98336 | -22.60567 | 156 ft | 18 kts | 359° |
| 2026-05-03 21:47 | 63.98498 | -22.60579 | 159 ft | 23 kts | 355° |
| 2026-05-03 21:48 | 63.98549 | -22.60589 | 159 ft | 0 kts | 355° |